METAR Data
IDs: Format: Raw Decoded Include TAF

Data at: 1237 UTC 24 May 2022

KGON 241156Z 05009KT 10SM CLR 15/06 A3030 RMK AO2 SLP260 60000 T01500056 10156 20139 53015